Time;durP1;ratioP1;P1;durP2;ratioP2;P2;SDS_P1;SDS_P2;PMS_P1;PMS_P2;Temp;Humidity;BMP_temperature;BMP_pressure;BME280_temperature;BME280_humidity;BME280_pressure;Samples;Min_cycle;Max_cycle;Signal;HPM_P1;HPM_P2
2020/12/30 00:00:45;;;;;;;2.30;0.85;;;4.00;89.70;;;;;;4871189;29;20076;-83
2020/12/30 00:03:14;;;;;;;1.50;0.68;;;4.00;89.70;;;;;;4879280;29;20415;-82
2020/12/30 00:05:41;;;;;;;4.45;1.00;;;4.00;90.00;;;;;;4870186;29;20061;-82
2020/12/30 00:08:08;;;;;;;2.47;1.05;;;4.00;89.80;;;;;;4875860;29;20132;-84
2020/12/30 00:10:35;;;;;;;3.60;1.70;;;4.10;89.80;;;;;;4877185;29;20128;-83
2020/12/30 00:13:06;;;;;;;1.50;0.73;;;4.10;89.80;;;;;;4875980;29;20067;-83
2020/12/30 00:15:34;;;;;;;2.67;1.08;;;4.00;89.80;;;;;;4867574;29;20056;-83
2020/12/30 00:18:01;;;;;;;1.35;0.80;;;4.00;90.00;;;;;;4879946;29;20068;-82
2020/12/30 00:20:28;;;;;;;3.30;0.75;;;4.00;90.00;;;;;;4881028;29;20049;-82
2020/12/30 00:22:57;;;;;;;3.10;1.02;;;4.00;89.80;;;;;;4868367;29;20332;-83
2020/12/30 00:25:27;;;;;;;1.55;0.70;;;4.00;89.90;;;;;;4887633;29;20098;-83
2020/12/30 00:27:55;;;;;;;2.58;0.73;;;4.00;90.30;;;;;;4884019;29;20057;-84
2020/12/30 00:30:22;;;;;;;1.75;0.68;;;3.90;90.50;;;;;;4888816;29;20061;-85
2020/12/30 00:32:52;;;;;;;2.03;0.93;;;3.80;90.80;;;;;;4888498;29;20061;-84
2020/12/30 00:35:19;;;;;;;2.40;0.68;;;3.80;90.90;;;;;;4883721;29;20045;-84
2020/12/30 00:37:47;;;;;;;1.45;0.57;;;3.80;91.10;;;;;;4883600;29;20065;-82
2020/12/30 00:40:15;;;;;;;0.77;0.38;;;3.80;91.10;;;;;;4901941;29;20069;-82
2020/12/30 00:42:42;;;;;;;1.58;0.75;;;3.80;91.10;;;;;;4878698;29;20069;-82
2020/12/30 00:45:10;;;;;;;2.55;0.65;;;3.90;91.10;;;;;;4889448;29;20109;-83
2020/12/30 00:47:38;;;;;;;3.13;0.60;;;3.90;91.00;;;;;;4871780;29;20126;-83
2020/12/30 00:50:06;;;;;;;1.48;0.63;;;3.90;90.90;;;;;;4883004;29;20061;-84
2020/12/30 00:52:40;;;;;;;1.63;0.77;;;3.90;90.70;;;;;;4876813;29;20057;-82
2020/12/30 00:55:12;;;;;;;1.55;0.70;;;3.90;90.70;;;;;;4887513;29;20100;-82
2020/12/30 00:57:54;;;;;;;1.75;0.80;;;3.90;90.60;;;;;;4865984;29;20087;-84
2020/12/30 01:00:23;;;;;;;3.47;0.73;;;4.00;90.60;;;;;;4862717;29;20513;-82
2020/12/30 01:03:08;;;;;;;2.25;1.30;;;4.00;90.80;;;;;;4876739;29;20040;-83
2020/12/30 01:05:38;;;;;;;3.85;1.40;;;4.00;90.80;;;;;;4875977;29;20049;-82
2020/12/30 01:08:05;;;;;;;5.55;1.35;;;4.00;91.10;;;;;;4875447;29;20206;-83
2020/12/30 01:10:32;;;;;;;2.13;0.93;;;4.00;91.00;;;;;;4888682;29;20064;-83
2020/12/30 01:13:00;;;;;;;2.63;1.25;;;4.00;90.90;;;;;;4891095;29;20064;-82
2020/12/30 01:15:28;;;;;;;2.40;0.95;;;4.00;90.60;;;;;;4879829;29;20113;-82
2020/12/30 01:17:55;;;;;;;4.85;1.45;;;4.00;90.70;;;;;;4873333;29;20059;-83
2020/12/30 01:20:25;;;;;;;2.25;1.10;;;4.00;90.80;;;;;;4853631;29;20336;-84
2020/12/30 01:22:54;;;;;;;3.28;1.10;;;3.90;90.80;;;;;;4858092;29;20065;-83
2020/12/30 01:25:21;;;;;;;2.55;0.93;;;3.90;91.00;;;;;;4874913;29;20057;-83
2020/12/30 01:27:48;;;;;;;2.95;1.30;;;4.00;91.00;;;;;;4877362;29;20061;-83
2020/12/30 01:30:15;;;;;;;4.07;0.90;;;4.00;91.00;;;;;;4892360;29;20049;-82
2020/12/30 01:32:44;;;;;;;3.63;1.20;;;4.00;91.10;;;;;;4849788;29;20068;-84
2020/12/30 01:35:12;;;;;;;3.55;1.42;;;3.90;91.30;;;;;;4875924;29;20062;-82
2020/12/30 01:37:39;;;;;;;1.27;0.80;;;4.00;91.40;;;;;;4873891;29;20049;-84
2020/12/30 01:40:07;;;;;;;4.13;1.42;;;4.00;91.60;;;;;;4863899;29;20065;-84
2020/12/30 01:42:43;;;;;;;3.83;1.60;;;4.00;91.30;;;;;;4876531;29;20049;-83
2020/12/30 01:45:10;;;;;;;2.35;1.00;;;4.00;91.20;;;;;;4876548;29;20360;-82
2020/12/30 01:47:38;;;;;;;2.58;1.27;;;4.10;91.50;;;;;;4852287;29;20057;-83
2020/12/30 01:50:06;;;;;;;2.72;1.65;;;4.10;91.60;;;;;;4858707;29;20402;-82
2020/12/30 01:52:33;;;;;;;2.58;1.13;;;4.10;91.60;;;;;;4871627;29;20359;-83
2020/12/30 01:55:02;;;;;;;2.80;1.10;;;4.10;91.50;;;;;;4869759;29;20362;-81
2020/12/30 01:57:32;;;;;;;1.58;0.73;;;4.20;91.30;;;;;;4864282;29;20072;-81
2020/12/30 01:59:59;;;;;;;4.10;1.48;;;4.20;91.20;;;;;;4887477;29;20103;-83
2020/12/30 02:02:30;;;;;;;5.75;1.50;;;4.10;91.10;;;;;;4870191;29;20073;-84
2020/12/30 02:05:00;;;;;;;1.90;0.80;;;4.20;90.90;;;;;;4843709;29;20058;-83
2020/12/30 02:07:30;;;;;;;1.27;0.90;;;4.20;91.30;;;;;;4867724;29;20064;-83
2020/12/30 02:09:59;;;;;;;1.83;1.10;;;4.20;90.70;;;;;;4876813;29;20072;-84
2020/12/30 02:12:28;;;;;;;;;;;4.20;90.80;;;;;;4879321;29;20065;-83
2020/12/30 02:14:56;;;;;;;0.77;0.60;;;4.10;90.90;;;;;;4861377;29;19920;-83
2020/12/30 02:17:23;;;;;;;4.68;1.20;;;4.10;90.80;;;;;;4871936;29;20337;-81
2020/12/30 02:19:50;;;;;;;1.83;0.77;;;4.10;90.70;;;;;;4880399;29;20065;-83
2020/12/30 02:22:21;;;;;;;3.30;0.90;;;4.10;90.70;;;;;;4870025;29;20059;-84
2020/12/30 02:24:49;;;;;;;1.27;1.00;;;4.10;90.90;;;;;;4882222;29;20389;-83
2020/12/30 02:27:16;;;;;;;1.42;0.50;;;4.20;90.80;;;;;;4881201;29;20072;-83
2020/12/30 02:29:43;;;;;;;2.22;0.77;;;4.20;91.00;;;;;;4855420;29;20077;-83
2020/12/30 02:32:09;;;;;;;2.30;1.05;;;4.20;91.00;;;;;;4857284;29;20064;-84
2020/12/30 02:34:36;;;;;;;1.83;0.68;;;4.10;90.90;;;;;;4860352;29;20053;-82
2020/12/30 02:37:03;;;;;;;2.80;0.80;;;4.10;91.10;;;;;;4841322;29;20315;-83
2020/12/30 02:39:30;;;;;;;3.08;0.90;;;4.10;91.20;;;;;;4842313;29;20049;-83
2020/12/30 02:41:58;;;;;;;1.88;0.98;;;4.10;91.20;;;;;;4853533;29;20065;-83
2020/12/30 02:44:25;;;;;;;3.67;0.60;;;4.00;91.30;;;;;;4869989;29;20400;-81
2020/12/30 02:46:51;;;;;;;3.95;0.80;;;4.10;91.40;;;;;;4873039;29;20060;-83
2020/12/30 02:49:19;;;;;;;3.13;0.75;;;4.00;91.60;;;;;;4841092;29;20061;-83
2020/12/30 02:51:46;;;;;;;2.78;0.93;;;4.00;91.70;;;;;;4873767;29;20349;-83
2020/12/30 02:54:12;;;;;;;1.80;0.80;;;4.00;91.70;;;;;;4873956;29;20065;-83
2020/12/30 02:56:41;;;;;;;3.88;1.38;;;4.00;91.80;;;;;;4875208;29;20056;-83
2020/12/30 02:59:09;;;;;;;2.78;1.17;;;3.90;91.90;;;;;;4861518;29;20072;-82
2020/12/30 03:01:35;;;;;;;1.50;0.90;;;4.00;92.00;;;;;;4871972;29;20057;-81
2020/12/30 03:04:02;;;;;;;4.47;1.65;;;3.90;92.20;;;;;;4850235;29;20058;-83
2020/12/30 03:06:30;;;;;;;3.17;1.20;;;3.90;92.40;;;;;;4855975;29;20053;-83
2020/12/30 03:08:57;;;;;;;3.55;1.15;;;3.90;92.50;;;;;;4857923;29;20061;-83
2020/12/30 03:11:25;;;;;;;2.88;1.17;;;3.90;92.60;;;;;;4871952;29;20371;-84
2020/12/30 03:13:52;;;;;;;2.33;1.13;;;3.90;92.50;;;;;;4877989;29;20356;-84
2020/12/30 03:16:20;;;;;;;2.47;1.20;;;3.90;92.70;;;;;;4874880;29;20054;-84
2020/12/30 03:18:47;;;;;;;2.88;1.40;;;4.00;92.70;;;;;;4850497;29;20121;-83
2020/12/30 03:21:14;;;;;;;1.17;0.68;;;4.00;92.40;;;;;;4873995;29;20081;-83
2020/12/30 03:23:40;;;;;;;2.08;1.13;;;4.00;92.20;;;;;;4874293;29;20076;-82
2020/12/30 03:26:07;;;;;;;1.63;0.95;;;3.90;92.30;;;;;;4875254;29;20071;-82
2020/12/30 03:28:34;;;;;;;1.77;0.80;;;3.90;92.50;;;;;;4873448;29;20104;-82
2020/12/30 03:31:01;;;;;;;2.03;1.10;;;3.80;92.60;;;;;;4869433;29;20061;-83
2020/12/30 03:33:29;;;;;;;1.85;0.75;;;3.80;92.90;;;;;;4857066;29;20133;-83
2020/12/30 03:35:56;;;;;;;1.23;0.88;;;4.00;92.60;;;;;;4872635;29;20069;-83
2020/12/30 03:38:22;;;;;;;1.55;0.70;;;4.00;92.20;;;;;;4873885;29;20053;-82
2020/12/30 03:40:49;;;;;;;3.30;1.50;;;4.00;92.30;;;;;;4873915;29;20069;-83
2020/12/30 03:43:17;;;;;;;2.92;1.05;;;4.00;92.30;;;;;;4871942;29;20061;-83
2020/12/30 03:45:45;;;;;;;4.00;1.30;;;4.00;92.40;;;;;;4838482;29;20119;-84
2020/12/30 03:48:12;;;;;;;2.38;1.33;;;4.20;91.90;;;;;;4838917;29;20077;-82
2020/12/30 03:50:40;;;;;;;2.50;1.27;;;4.10;91.80;;;;;;4852778;29;20057;-83
2020/12/30 03:53:10;;;;;;;1.27;0.82;;;4.10;92.10;;;;;;4841502;29;20116;-85
2020/12/30 03:55:37;;;;;;;2.25;1.33;;;4.10;92.00;;;;;;4872605;29;20064;-84
2020/12/30 03:58:04;;;;;;;4.40;1.25;;;4.00;92.30;;;;;;4856621;29;20097;-84
2020/12/30 04:00:37;;;;;;;4.00;1.30;;;4.00;92.40;;;;;;4855436;29;20061;-84
2020/12/30 04:03:05;;;;;;;3.00;1.52;;;4.10;92.10;;;;;;4851280;29;20053;-83
2020/12/30 04:05:32;;;;;;;2.92;1.15;;;4.20;91.90;;;;;;4870394;29;20068;-84
2020/12/30 04:07:59;;;;;;;2.17;0.90;;;4.00;92.00;;;;;;4868668;29;20050;-84
2020/12/30 04:10:26;;;;;;;2.15;1.10;;;4.00;92.30;;;;;;4872551;29;20053;-81
2020/12/30 04:12:53;;;;;;;2.03;0.88;;;3.90;92.40;;;;;;4843779;29;20126;-83
2020/12/30 04:15:20;;;;;;;6.15;1.50;;;3.90;92.40;;;;;;4853213;29;20054;-83
2020/12/30 04:17:47;;;;;;;2.08;1.08;;;3.90;92.70;;;;;;4843406;29;20053;-83
2020/12/30 04:20:13;;;;;;;5.28;1.10;;;3.80;92.90;;;;;;4835135;29;20061;-82
2020/12/30 04:22:40;;;;;;;4.80;1.55;;;3.90;93.00;;;;;;4838824;29;20065;-83
2020/12/30 04:25:08;;;;;;;6.20;1.73;;;4.00;92.70;;;;;;4844856;29;20421;-84
2020/12/30 04:27:36;;;;;;;3.53;1.42;;;3.90;92.70;;;;;;4828308;29;20049;-83
2020/12/30 04:30:04;;;;;;;3.47;1.40;;;4.00;92.90;;;;;;4839894;29;20218;-83
2020/12/30 04:32:31;;;;;;;5.43;1.38;;;4.10;93.00;;;;;;4840510;29;20056;-82
2020/12/30 04:34:58;;;;;;;3.05;1.60;;;4.10;92.70;;;;;;4850334;29;20260;-82
2020/12/30 04:37:25;;;;;;;3.65;1.25;;;4.10;92.80;;;;;;4840597;29;20041;-82
2020/12/30 04:39:51;;;;;;;2.50;1.25;;;4.20;92.80;;;;;;4834907;29;20065;-83
2020/12/30 04:42:30;;;;;;;2.92;1.60;;;4.10;93.10;;;;;;4856146;29;20062;-83
2020/12/30 04:44:59;;;;;;;2.05;1.10;;;4.00;93.30;;;;;;4854431;29;20446;-87
2020/12/30 04:47:29;;;;;;;2.53;1.27;;;4.00;93.20;;;;;;4838316;29;20373;-83
2020/12/30 04:49:56;;;;;;;2.72;1.05;;;4.10;93.50;;;;;;4853676;29;20299;-81
2020/12/30 04:52:26;;;;;;;3.88;1.10;;;4.00;93.60;;;;;;4850599;29;20114;-83
2020/12/30 04:54:54;;;;;;;5.00;1.75;;;4.00;93.70;;;;;;4835097;29;20073;-86
2020/12/30 04:57:56;;;;;;;2.85;1.25;;;4.00;93.80;;;;;;4838388;29;20082;-82
2020/12/30 05:00:29;;;;;;;2.80;0.82;;;4.00;93.70;;;;;;4855279;29;20073;-82
2020/12/30 05:03:00;;;;;;;5.93;1.40;;;4.00;93.90;;;;;;4830503;29;20073;-83
2020/12/30 05:05:30;;;;;;;2.50;1.02;;;4.00;93.90;;;;;;4840875;29;20054;-83
2020/12/30 05:07:57;;;;;;;4.78;1.35;;;4.10;93.90;;;;;;4852744;29;20049;-83
2020/12/30 05:10:24;;;;;;;3.58;1.50;;;4.10;94.00;;;;;;4853899;29;20058;-84
2020/12/30 05:12:54;;;;;;;4.60;1.25;;;4.10;93.60;;;;;;4835312;29;20062;-83
2020/12/30 05:15:22;;;;;;;5.67;1.73;;;4.10;93.70;;;;;;4852100;29;20053;-82
2020/12/30 05:17:52;;;;;;;5.20;1.38;;;4.10;93.80;;;;;;4866692;29;20065;-84
2020/12/30 05:20:19;;;;;;;5.13;1.27;;;4.10;94.00;;;;;;4851926;29;20058;-84
2020/12/30 05:22:46;;;;;;;3.47;1.42;;;4.10;93.80;;;;;;4853279;29;20053;-83
2020/12/30 05:25:13;;;;;;;3.00;1.70;;;4.10;93.80;;;;;;4821938;29;20065;-82
2020/12/30 05:27:40;;;;;;;3.20;1.45;;;4.10;93.90;;;;;;4821721;29;20106;-82
2020/12/30 05:30:08;;;;;;;6.07;1.90;;;4.20;93.70;;;;;;4852645;29;20062;-83
2020/12/30 05:32:37;;;;;;;1.83;0.80;;;4.20;93.70;;;;;;4853273;29;20094;-83
2020/12/30 05:35:05;;;;;;;1.63;0.88;;;4.20;93.60;;;;;;4850397;29;20105;-82
2020/12/30 05:37:35;;;;;;;3.22;1.08;;;4.30;93.40;;;;;;4852149;29;20057;-84
2020/12/30 05:40:19;;;;;;;3.88;1.40;;;4.30;93.00;;;;;;4851882;29;20061;-84
2020/12/30 05:42:47;;;;;;;2.60;1.02;;;4.30;93.40;;;;;;4821553;29;20060;-82
2020/12/30 05:45:20;;;;;;;2.78;1.38;;;4.30;93.50;;;;;;4852215;29;20060;-83
2020/12/30 05:47:47;;;;;;;2.97;1.05;;;4.30;93.40;;;;;;4828036;29;20066;-84
2020/12/30 05:50:22;;;;;;;2.70;1.50;;;4.30;92.80;;;;;;4836383;29;20058;-83
2020/12/30 05:52:50;;;;;;;1.70;0.90;;;4.30;93.20;;;;;;4852203;29;20062;-83
2020/12/30 05:55:23;;;;;;;2.00;0.80;;;4.20;93.30;;;;;;4837241;29;20053;-84
2020/12/30 05:57:52;;;;;;;1.95;1.10;;;4.20;93.60;;;;;;4850949;29;20133;-82
2020/12/30 06:00:28;;;;;;;2.75;1.58;;;4.20;93.50;;;;;;4836034;29;20341;-83
2020/12/30 06:02:55;;;;;;;2.17;1.02;;;4.30;93.60;;;;;;4852277;29;20191;-81
2020/12/30 06:05:24;;;;;;;2.47;1.02;;;4.20;93.70;;;;;;4850900;29;20062;-83
2020/12/30 06:07:53;;;;;;;6.28;1.50;;;4.30;93.40;;;;;;4842965;29;20117;-84
2020/12/30 06:10:21;;;;;;;2.22;1.15;;;4.30;93.40;;;;;;4820394;29;20049;-83
2020/12/30 06:12:52;;;;;;;4.32;1.60;;;4.30;93.40;;;;;;4863839;29;20257;-83
2020/12/30 06:15:20;;;;;;;;;;;4.30;93.70;;;;;;4855179;29;20049;-83
2020/12/30 06:17:58;;;;;;;1.35;0.70;;;4.30;93.40;;;;;;4875571;29;19920;-82
2020/12/30 06:20:31;;;;;;;1.95;1.13;;;4.40;93.60;;;;;;4851343;29;20053;-82
2020/12/30 06:22:59;;;;;;;2.53;1.17;;;4.40;93.60;;;;;;4866940;29;20360;-85
2020/12/30 06:25:29;;;;;;;4.72;1.00;;;4.50;93.20;;;;;;4854460;29;20092;-81
2020/12/30 06:27:56;;;;;;;6.03;1.88;;;4.50;93.20;;;;;;4856311;29;20053;-83
2020/12/30 06:30:24;;;;;;;3.58;1.20;;;4.40;92.80;;;;;;4869791;29;20253;-83
2020/12/30 06:32:51;;;;;;;3.47;1.30;;;4.40;93.20;;;;;;4861134;29;20045;-83
2020/12/30 06:35:28;;;;;;;3.13;1.58;;;4.40;93.40;;;;;;4870708;29;20065;-84
2020/12/30 06:37:55;;;;;;;3.53;1.70;;;4.40;93.30;;;;;;4869882;29;20042;-81
2020/12/30 06:40:24;;;;;;;4.15;2.15;;;4.50;92.80;;;;;;4870712;29;20275;-83
2020/12/30 06:42:58;;;;;;;4.30;1.92;;;4.40;93.10;;;;;;4869668;29;20057;-81
2020/12/30 06:45:49;;;;;;;4.35;2.85;;;4.50;93.00;;;;;;4854134;29;20056;-82
2020/12/30 06:48:17;;;;;;;6.35;1.85;;;4.50;93.10;;;;;;4869357;29;20278;-83
2020/12/30 06:50:44;;;;;;;4.68;1.80;;;4.50;92.20;;;;;;4870126;29;20355;-85
2020/12/30 06:53:31;;;;;;;9.35;2.08;;;4.60;92.30;;;;;;4870357;29;20058;-83
2020/12/30 06:56:00;;;;;;;3.70;1.58;;;4.60;92.70;;;;;;4866355;29;20353;-83
2020/12/30 06:58:43;;;;;;;3.85;1.85;;;4.60;92.30;;;;;;4875437;29;20053;-81
2020/12/30 07:01:12;;;;;;;4.15;2.25;;;4.60;92.30;;;;;;4860208;29;20100;-83
2020/12/30 07:03:40;;;;;;;3.70;1.70;;;4.50;92.50;;;;;;4889091;29;20131;-83
2020/12/30 07:06:30;;;;;;;8.95;1.80;;;4.60;92.60;;;;;;4887750;29;20097;-83
2020/12/30 07:09:01;;;;;;;5.40;1.80;;;4.60;92.60;;;;;;4861708;29;20108;-83
2020/12/30 07:11:50;;;;;;;3.67;1.90;;;4.60;92.20;;;;;;4870671;29;20485;-82
2020/12/30 07:14:19;;;;;;;1.98;1.20;;;4.60;92.50;;;;;;4867104;29;20056;-83
2020/12/30 07:16:49;;;;;;;2.20;1.30;;;4.60;91.70;;;;;;4845297;29;20058;-83
2020/12/30 07:19:18;;;;;;;3.88;1.77;;;4.60;91.70;;;;;;4874978;29;20282;-84
2020/12/30 07:22:04;;;;;;;3.47;1.50;;;4.60;91.70;;;;;;4874517;29;20065;-83
2020/12/30 07:24:33;;;;;;;2.70;1.50;;;4.60;91.40;;;;;;4871358;29;20057;-83
2020/12/30 07:27:04;;;;;;;3.63;1.58;;;4.60;92.10;;;;;;4856551;29;20053;-82
2020/12/30 07:29:31;;;;;;;3.75;1.50;;;4.60;92.10;;;;;;4850848;29;20072;-82
2020/12/30 07:32:01;;;;;;;3.42;1.77;;;4.60;92.00;;;;;;4857003;29;20057;-83
2020/12/30 07:34:30;;;;;;;2.83;1.67;;;4.70;92.10;;;;;;4845338;29;20061;-84
2020/12/30 07:36:57;;;;;;;3.45;1.40;;;4.70;92.00;;;;;;4852660;29;20329;-84
2020/12/30 07:39:29;;;;;;;4.25;2.10;;;4.70;91.50;;;;;;4869422;29;20050;-82
2020/12/30 07:41:56;;;;;;;4.60;2.03;;;4.70;91.30;;;;;;4872518;29;20061;-83
2020/12/30 07:44:24;;;;;;;5.78;2.00;;;4.70;91.40;;;;;;4871794;29;20065;-83
2020/12/30 07:46:51;;;;;;;3.80;1.70;;;4.60;92.00;;;;;;4856444;29;20154;-84
2020/12/30 07:49:23;;;;;;;6.78;1.60;;;4.60;92.40;;;;;;4872584;29;20097;-82
2020/12/30 07:51:52;;;;;;;4.82;1.80;;;4.70;92.20;;;;;;4872946;29;20132;-83
2020/12/30 07:54:19;;;;;;;5.32;1.95;;;4.60;91.90;;;;;;4871439;29;20340;-83
2020/12/30 07:56:47;;;;;;;6.53;2.40;;;4.60;92.10;;;;;;4856784;29;20097;-82
2020/12/30 07:59:22;;;;;;;7.93;2.60;;;4.60;92.10;;;;;;4881731;29;20052;-81
2020/12/30 08:01:56;;;;;;;3.55;1.42;;;4.60;91.90;;;;;;4875505;29;20046;-84
2020/12/30 08:04:24;;;;;;;4.50;1.60;;;4.70;91.90;;;;;;4861286;29;20061;-83
2020/12/30 08:06:52;;;;;;;5.55;2.25;;;4.70;91.70;;;;;;4862798;29;20320;-84
2020/12/30 08:09:19;;;;;;;4.20;2.05;;;4.70;91.90;;;;;;4876961;29;20063;-82
2020/12/30 08:11:51;;;;;;;4.22;1.80;;;4.70;91.80;;;;;;4867047;29;20078;-83
2020/12/30 08:14:19;;;;;;;5.15;2.00;;;4.70;91.90;;;;;;4871115;29;20061;-83
2020/12/30 08:16:54;;;;;;;4.40;1.65;;;4.60;91.90;;;;;;4871296;29;20119;-84
2020/12/30 08:19:46;;;;;;;5.10;2.45;;;4.80;92.00;;;;;;4870868;29;20160;-83
2020/12/30 08:22:15;;;;;;;8.95;2.97;;;4.70;91.90;;;;;;4859114;29;20071;-83
2020/12/30 08:24:44;;;;;;;7.10;3.20;;;4.70;92.30;;;;;;4856969;29;20080;-82
2020/12/30 08:27:14;;;;;;;7.50;2.50;;;4.70;91.80;;;;;;4866623;29;20054;-81
2020/12/30 08:29:42;;;;;;;4.63;2.40;;;4.70;91.90;;;;;;4865391;29;20298;-83
2020/12/30 08:32:18;;;;;;;6.65;2.35;;;4.80;91.80;;;;;;4874879;29;20071;-82
2020/12/30 08:34:53;;;;;;;5.18;2.20;;;4.70;92.00;;;;;;4886421;29;20057;-84
2020/12/30 08:37:26;;;;;;;2.97;1.60;;;4.70;92.00;;;;;;4863829;29;20045;-87
2020/12/30 08:40:05;;;;;;;2.47;1.42;;;4.70;91.60;;;;;;4868607;29;20053;-86
2020/12/30 08:43:04;;;;;;;3.40;1.77;;;4.70;91.90;;;;;;4872912;29;20061;-82
2020/12/30 08:45:32;;;;;;;2.92;1.33;;;4.70;91.80;;;;;;4872977;29;20061;-84
2020/12/30 08:48:07;;;;;;;4.07;1.70;;;4.70;92.00;;;;;;4852735;29;20054;-83
2020/12/30 08:50:35;;;;;;;3.42;1.65;;;4.80;92.10;;;;;;4869870;29;20065;-82
2020/12/30 08:53:02;;;;;;;3.42;1.75;;;4.90;91.30;;;;;;4868751;29;20046;-83
2020/12/30 08:55:30;;;;;;;3.45;1.63;;;5.00;91.40;;;;;;4886352;29;20123;-83
2020/12/30 08:57:58;;;;;;;2.97;1.73;;;4.90;91.60;;;;;;4886138;29;20106;-83
2020/12/30 09:00:33;;;;;;;4.28;1.80;;;4.90;91.60;;;;;;4869669;29;20264;-84
2020/12/30 09:03:13;;;;;;;3.13;1.42;;;4.90;91.20;;;;;;4873378;29;20049;-84
2020/12/30 09:05:42;;;;;;;4.28;1.45;;;4.90;90.50;;;;;;4872850;29;20049;-83
2020/12/30 09:08:12;;;;;;;3.63;1.27;;;4.90;90.90;;;;;;4871005;29;20065;-84
2020/12/30 09:10:39;;;;;;;4.47;1.75;;;5.00;90.30;;;;;;4852066;29;20068;-85
2020/12/30 09:13:13;;;;;;;2.45;1.40;;;4.90;90.80;;;;;;4883349;29;20170;-82
2020/12/30 09:15:41;;;;;;;1.75;1.23;;;4.90;91.10;;;;;;4873664;29;20052;-83
2020/12/30 09:18:09;;;;;;;4.97;1.90;;;4.90;90.90;;;;;;4875615;29;20062;-82
2020/12/30 09:20:36;;;;;;;7.55;2.38;;;4.90;91.10;;;;;;4871243;29;20072;-81
2020/12/30 09:23:05;;;;;;;6.68;2.95;;;4.90;91.20;;;;;;4870291;29;20112;-83
2020/12/30 09:25:35;;;;;;;4.60;3.28;;;5.00;90.90;;;;;;4871383;29;20058;-82
2020/12/30 09:28:13;;;;;;;4.03;2.47;;;5.00;91.00;;;;;;4855025;29;20076;-84
2020/12/30 09:30:40;;;;;;;4.18;1.77;;;4.90;91.00;;;;;;4871184;29;20067;-82
2020/12/30 09:33:14;;;;;;;5.47;1.48;;;5.00;91.20;;;;;;4872531;29;20056;-84
2020/12/30 09:35:41;;;;;;;2.78;1.30;;;5.00;91.30;;;;;;4855737;29;20313;-82
2020/12/30 09:38:10;;;;;;;3.35;1.70;;;5.20;90.90;;;;;;4871941;29;20057;-84
2020/12/30 09:40:41;;;;;;;4.43;1.85;;;5.30;89.80;;;;;;4864364;29;20058;-82
2020/12/30 09:43:12;;;;;;;5.53;2.28;;;5.20;90.20;;;;;;4872179;29;20057;-83
2020/12/30 09:45:39;;;;;;;4.10;1.33;;;5.20;90.00;;;;;;4875620;29;20088;-83
2020/12/30 09:48:11;;;;;;;3.30;1.30;;;5.30;89.60;;;;;;4862545;29;20054;-84
2020/12/30 09:50:39;;;;;;;4.95;1.17;;;5.30;90.00;;;;;;4883043;29;20062;-81
2020/12/30 09:53:07;;;;;;;3.10;1.40;;;5.30;89.00;;;;;;4871196;29;20329;-82
2020/12/30 09:55:38;;;;;;;3.22;1.33;;;5.30;89.20;;;;;;4872234;29;20077;-85
2020/12/30 09:58:05;;;;;;;3.05;1.17;;;5.30;89.30;;;;;;4884532;29;20057;-82
2020/12/30 10:00:32;;;;;;;2.42;1.15;;;5.30;89.40;;;;;;4867984;29;20072;-83
2020/12/30 10:03:02;;;;;;;2.80;1.10;;;5.30;89.20;;;;;;4880380;29;20337;-84
2020/12/30 10:05:29;;;;;;;3.28;1.92;;;5.40;88.80;;;;;;4867268;29;20054;-83
2020/12/30 10:07:58;;;;;;;1.85;1.23;;;5.40;88.70;;;;;;4883331;29;20050;-83
2020/12/30 10:10:25;;;;;;;3.40;1.20;;;5.40;88.20;;;;;;4870741;29;20061;-83
2020/12/30 10:12:55;;;;;;;2.42;1.42;;;5.30;88.40;;;;;;4863693;29;20054;-82
2020/12/30 10:15:21;;;;;;;3.67;1.17;;;5.30;88.50;;;;;;4846819;29;20129;-81
2020/12/30 10:17:48;;;;;;;1.30;0.82;;;5.30;87.90;;;;;;4822541;29;20219;-83
2020/12/30 10:20:15;;;;;;;1.60;0.82;;;5.20;88.30;;;;;;4823586;29;20098;-84
2020/12/30 10:22:45;;;;;;;3.55;1.15;;;5.30;88.50;;;;;;4852055;29;20081;-81
2020/12/30 10:25:12;;;;;;;6.68;2.50;;;5.30;88.00;;;;;;4852609;29;20148;-82
2020/12/30 10:27:41;;;;;;;4.13;1.38;;;5.30;88.50;;;;;;4834886;29;20122;-85
2020/12/30 10:30:10;;;;;;;6.18;1.45;;;5.30;88.20;;;;;;4837037;29;20219;-82
2020/12/30 10:32:38;;;;;;;2.67;1.42;;;5.30;88.20;;;;;;4852170;29;20061;-84
2020/12/30 10:35:06;;;;;;;2.78;1.35;;;5.30;88.30;;;;;;4821352;29;20054;-82
2020/12/30 10:37:36;;;;;;;3.30;1.60;;;5.30;88.40;;;;;;4850308;29;20069;-84
2020/12/30 10:40:04;;;;;;;3.27;1.30;;;5.20;88.50;;;;;;4828606;29;20352;-83
2020/12/30 10:42:30;;;;;;;3.65;1.60;;;5.20;88.30;;;;;;4853961;29;20248;-82
2020/12/30 10:44:57;;;;;;;2.95;1.00;;;5.20;88.40;;;;;;4836757;29;20054;-82
2020/12/30 10:47:26;;;;;;;5.35;1.70;;;5.30;88.40;;;;;;4850713;29;20245;-83
2020/12/30 10:49:53;;;;;;;3.08;1.33;;;5.30;88.40;;;;;;4836354;29;20061;-83
2020/12/30 10:52:20;;;;;;;2.25;0.93;;;5.30;88.20;;;;;;4828969;29;20069;-83
2020/12/30 10:54:47;;;;;;;3.92;1.10;;;5.30;88.20;;;;;;4836784;29;20113;-83
2020/12/30 10:57:14;;;;;;;3.25;1.35;;;5.30;88.00;;;;;;4851532;29;20064;-82
2020/12/30 10:59:43;;;;;;;5.95;1.10;;;5.30;87.40;;;;;;4819490;29;20081;-87
2020/12/30 11:02:10;;;;;;;2.42;1.10;;;5.30;87.20;;;;;;4850284;29;20069;-83
2020/12/30 11:04:38;;;;;;;5.45;1.77;;;5.40;87.30;;;;;;4826361;29;20053;-84
2020/12/30 11:07:06;;;;;;;2.42;1.10;;;5.50;87.00;;;;;;4836502;29;20038;-82
2020/12/30 11:09:32;;;;;;;1.95;1.02;;;5.40;87.20;;;;;;4833398;29;20079;-84
2020/12/30 11:11:59;;;;;;;4.35;1.30;;;5.40;87.20;;;;;;4857125;29;20060;-81
2020/12/30 11:14:27;;;;;;;1.25;0.90;;;5.30;87.50;;;;;;4871344;29;20057;-82
2020/12/30 11:16:54;;;;;;;3.00;1.33;;;5.30;87.50;;;;;;4876886;29;20065;-83
2020/12/30 11:19:20;;;;;;;2.30;1.00;;;5.30;87.10;;;;;;4854298;29;20093;-84
2020/12/30 11:21:52;;;;;;;1.48;0.88;;;5.30;87.30;;;;;;4870425;29;20073;-83
2020/12/30 11:24:19;;;;;;;3.70;1.15;;;5.40;86.90;;;;;;4864882;29;20061;-83
2020/12/30 11:26:46;;;;;;;2.47;1.10;;;5.40;87.10;;;;;;4869701;29;20077;-82
2020/12/30 11:29:16;;;;;;;3.65;1.15;;;5.30;86.70;;;;;;4846484;29;20141;-83
2020/12/30 11:31:45;;;;;;;2.47;0.88;;;5.40;86.90;;;;;;4879703;29;20057;-84
2020/12/30 11:34:12;;;;;;;3.42;1.33;;;5.30;86.60;;;;;;4866751;29;20254;-82
2020/12/30 11:36:39;;;;;;;1.77;0.82;;;5.40;86.20;;;;;;4872434;29;20241;-84
2020/12/30 11:39:07;;;;;;;1.92;1.23;;;5.40;86.60;;;;;;4875588;29;20048;-83
2020/12/30 11:41:36;;;;;;;5.18;1.80;;;5.40;86.40;;;;;;4872979;29;20108;-85
2020/12/30 11:44:03;;;;;;;1.50;0.70;;;5.40;86.30;;;;;;4869360;29;20061;-83
2020/12/30 11:46:30;;;;;;;3.22;1.40;;;5.40;86.00;;;;;;4855962;29;20058;-81
2020/12/30 11:48:58;;;;;;;3.33;2.20;;;5.40;85.80;;;;;;4872475;29;20061;-81
2020/12/30 11:51:25;;;;;;;1.95;0.82;;;5.40;85.80;;;;;;4877744;29;20356;-82
2020/12/30 11:53:51;;;;;;;4.50;1.73;;;5.30;85.90;;;;;;4874063;29;20061;-83
2020/12/30 11:56:23;;;;;;;2.47;1.17;;;5.30;86.70;;;;;;4860710;29;20057;-82
2020/12/30 11:58:51;;;;;;;2.15;1.05;;;5.40;86.70;;;;;;4859334;29;20348;-81
2020/12/30 12:01:17;;;;;;;2.67;1.40;;;5.40;86.70;;;;;;4875570;29;20076;-84
2020/12/30 12:03:45;;;;;;;6.18;1.80;;;5.50;86.60;;;;;;4858931;29;20053;-83
2020/12/30 12:06:13;;;;;;;3.72;1.45;;;5.50;86.90;;;;;;4875341;29;20058;-82
2020/12/30 12:08:41;;;;;;;5.13;1.58;;;5.40;86.50;;;;;;4870716;29;20229;-82
2020/12/30 12:11:10;;;;;;;1.63;0.90;;;5.50;86.90;;;;;;4839268;29;20046;-83
2020/12/30 12:13:38;;;;;;;4.07;1.67;;;5.50;86.40;;;;;;4882948;29;20167;-83
2020/12/30 12:16:04;;;;;;;2.90;1.35;;;5.50;86.70;;;;;;4880405;29;20064;-84
2020/12/30 12:18:35;;;;;;;4.35;1.73;;;5.50;86.80;;;;;;4891573;29;20042;-82
2020/12/30 12:21:03;;;;;;;2.92;1.50;;;5.50;86.50;;;;;;4872998;29;20057;-83
2020/12/30 12:23:30;;;;;;;2.92;1.23;;;5.70;86.60;;;;;;4873250;29;20353;-82
2020/12/30 12:25:58;;;;;;;3.30;1.13;;;5.70;86.40;;;;;;4872141;29;20054;-81
2020/12/30 12:29:00;;;;;;;3.95;1.33;;;5.80;86.80;;;;;;4898036;29;20134;-82
2020/12/30 12:31:27;;;;;;;3.88;1.02;;;5.80;86.10;;;;;;4889648;29;20053;-82
2020/12/30 12:33:54;;;;;;;2.90;1.33;;;5.70;86.50;;;;;;4881842;29;20098;-83
2020/12/30 12:36:21;;;;;;;5.07;2.00;;;5.70;86.90;;;;;;4885457;29;20057;-82
2020/12/30 12:38:49;;;;;;;10.23;2.00;;;5.80;86.40;;;;;;4887363;29;20379;-84
2020/12/30 12:41:21;;;;;;;3.00;1.23;;;5.70;86.50;;;;;;4861743;29;20115;-82
2020/12/30 12:43:54;;;;;;;3.33;1.00;;;5.70;86.40;;;;;;4883316;29;20053;-84
2020/12/30 12:46:22;;;;;;;2.95;1.15;;;5.80;85.80;;;;;;4886000;29;20053;-81
2020/12/30 12:48:51;;;;;;;2.58;0.93;;;5.80;85.80;;;;;;4873563;29;20063;-81
2020/12/30 12:51:19;;;;;;;2.63;1.40;;;5.70;86.10;;;;;;4865618;29;20057;-83
2020/12/30 12:53:46;;;;;;;2.08;1.33;;;5.70;86.40;;;;;;4894529;29;20056;-84
2020/12/30 12:56:17;;;;;;;2.83;1.20;;;5.80;86.30;;;;;;4895819;29;20057;-82
2020/12/30 12:58:45;;;;;;;4.57;2.97;;;6.00;86.00;;;;;;4876687;29;20084;-83
2020/12/30 13:01:11;;;;;;;2.17;0.93;;;6.10;86.30;;;;;;4888711;29;20063;-84
2020/12/30 13:03:39;;;;;;;2.95;1.20;;;6.00;85.90;;;;;;4873994;29;20348;-83
2020/12/30 13:06:06;;;;;;;4.03;1.02;;;5.90;85.50;;;;;;4880613;29;20052;-83
2020/12/30 13:08:33;;;;;;;3.50;1.00;;;5.90;86.00;;;;;;4886414;29;20117;-82